Tiempo atmosférico en la estación meteorológica de Vinaròs, Castelló/Castellón (110 m.)



Fecha
DESCASC
Temp. máxima en grados centígrados (hora)
DESCASC
Temp. mínima en grados centígrados (hora)
DESCASC
Temp. media en grados centígrados
DESCASC
Racha de viento máxima en m/sg (hora)
DESCASC
Velocidad máxima media en intervalos de 10 minutos(hora)
DESCASC
Precipitaciones diarias en mm
DESCASC
Precipitaciones de 00:00 a 06:00 en mm
DESCASC
Precipitaciones de 06:00 a 12:00 en mm
DESCASC
Precipitaciones de 12:00 a 18:00 en mm
DESCASC
Precipitaciones de 18:00 a 24:00 en mm
DESCASC
16-04-2019 21.1 (12:00) 10.1 (06:20) 15.6 9.17 (14:30) 5.83 (14:30) 0 0 0 0 0
15-04-2019 20 (14:00) 10.7 (02:40) 15.3 8.06 (16:10) 4.72 (16:10) 0 0 0 0 0
14-04-2019 26.1 (13:10) 7.9 (00:00) 17 8.06 (14:10) 5 (11:20) 0 0 0 0 0
13-04-2019 22 (16:00) 5.7 (00:00) 13.8 6.94 (12:50) 4.17 (17:10) 0 0 0 0 0
12-04-2019 23.4 (13:00) 10.4 (00:00) 16.9 13.06 (01:10) 7.22 (00:20) 0 0 0 0 0
11-04-2019 23.5 (17:30) 11.1 (00:00) 17.3 13.06 (09:50) 7.5 (23:40) 0 0 0 0 0
10-04-2019 21.7 (14:30) 10.9 (00:00) 16.3 10 (11:00) 5.28 (10:20) 0 0 0 0 0
09-04-2019 22.6 (13:40) 10 (00:00) 16.3 8.89 (14:30) 4.72 (10:00) 0 0 0 0 0
08-04-2019 21.7 (15:10) 7.3 (00:00) 14.5 6.39 (12:50) 3.61 (12:50) 1.5 0 0 1.4 0.1
07-04-2019 21 (15:20) 6.9 (00:00) 14 15 (18:50) 6.11 (17:30) 0 0 0 0 0
06-04-2019 21.3 (16:40) 6.4 (00:00) 13.8 14.17 (18:20) 8.06 (18:20) 0 0 0 0 0
05-04-2019 19.9 (15:00) 6.9 (00:00) 13.4 9.72 (15:50) 5.83 (15:50) 0.2 0 0 0 0.2
04-04-2019 19.2 (14:30) 6.8 (00:00) 13 11.39 (06:40) 5.83 (07:50) 0 0 0 0 0
03-04-2019 17.7 (12:10) 8.4 (00:00) 13.1 7.22 (16:20) 4.72 (16:20) 4.9 0 0 2.5 2.4
02-04-2019 20.8 (13:30) 6.4 (00:00) 13.6 7.22 (16:40) 4.17 (16:50) 0 0 0 0 0
01-04-2019 19.3 (14:10) 9.2 (00:00) 14.2 5 (11:00) 2.78 (03:10) 0.2 0.2 0 0 0
31-03-2019 14.2 (14:20) 7.1 (00:00) 10.6 6.11 (14:40) 3.89 (14:40) 5 0 0.1 3.4 1.5
30-03-2019 18.2 (13:30) 5.6 (00:00) 11.9 9.44 (14:40) 5 (16:10) 0 0 0 0 0
29-03-2019 19.1 (13:00) 3.2 (00:00) 11.2 8.06 (14:20) 4.44 (14:00) 0 0 0 0 0
28-03-2019 20.7 (12:10) 4.5 (00:00) 12.6 7.78 (14:50) 4.72 (14:40) 0 0 0 0 0
27-03-2019 21.2 (11:40) 6.3 (00:00) 13.8 8.33 (14:50) 5 (14:50) 0 0 0 0 0
26-03-2019 22.4 (14:40) 7.7 (00:00) 15 10 (17:50) 5.56 (17:50) 0 0 0 0 0
25-03-2019 24.9 (11:40) 7.1 (00:00) 16 7.22 (21:40) 4.17 (21:50) 0 0 0 0 0
24-03-2019 24.1 (12:40) 6.1 (00:00) 15.1 7.78 (12:50) 5.28 (13:30) 0 0 0 0 0
23-03-2019 23.7 (12:10) 6.2 (00:00) 15 7.78 (15:10) 3.89 (14:30) 0 0 0 0 0
22-03-2019 21.2 (14:20) 4.4 (00:00) 12.8 8.06 (16:10) 5.28 (16:40) 0 0 0 0 0
21-03-2019 18.8 (11:50) 5.8 (00:00) 12.3 12.5 (15:40) 6.67 (15:50) 0 0 0 0 0
20-03-2019 19 (14:20) 6.7 (00:00) 12.8 10.56 (15:50) 6.67 (15:50) 0.1 0.1 0 0 0
19-03-2019 20.2 (13:50) 9.5 (00:00) 14.9 9.17 (09:10) 5.56 (10:00) 1.5 0 0 0.6 0.9

Gráficas

Temp. máximas Temp. mínimas Temp. medias Precipitaciones Rachas de viento máximas Velocidades máximas media en intervalos de 10 minutos

Datos horarios

Fecha y hora oficial Temperatura (ºC) Velocidad del viento (km/h) Dirección del viento Racha (km/h) Dirección de racha Precipitación (mm) Presión (hPa) Tendencia (hPa) Humedad (%)
2019-04-17 23:00:00 14.4 6 Sudeste 10 Este 0 -- -- 77
2019-04-17 22:00:00 14.3 3 Sur 9 Sur 0 -- -- 76
2019-04-17 21:00:00 14.4 5 Sur 15 Sudeste 0 -- -- 73
2019-04-17 20:00:00 14.8 9 Sur 19 Sur 0 -- -- 65
2019-04-17 19:00:00 15.8 10 Sur 20 Sur 0 -- -- 59
2019-04-17 18:00:00 16.1 13 Sur 22 Sur 0 -- -- 55
2019-04-17 17:00:00 17.4 14 Sur 27 Sudeste 0 -- -- 52
2019-04-17 16:00:00 18.7 13 Sur 26 Sur 0 -- -- 47
2019-04-17 15:00:00 18.9 12 Sur 24 Sudeste 0 -- -- 50
2019-04-17 14:00:00 17.2 10 Sudeste 21 Sudeste 0 -- -- 56
2019-04-17 13:00:00 16.4 9 Sudeste 15 Sur 0 -- -- 60
2019-04-17 12:00:00 15.1 5 Sudoeste 13 Sudeste 0 -- -- 63
2019-04-17 11:00:00 14.8 6 Sur 11 Sudeste 0 -- -- 66
2019-04-17 10:00:00 15.3 4 Sur 9 Sur 0 -- -- 63
2019-04-17 09:00:00 13.9 0 Calma 6 Noroeste 0 -- -- 67
2019-04-17 08:00:00 11.7 0 Calma 8 Noroeste 0 -- -- 75
2019-04-17 07:00:00 10.9 4 Norte 7 Norte 0 -- -- 80
2019-04-17 06:00:00 9.8 4 Nordeste 9 Norte 0 -- -- 81
2019-04-17 05:00:00 10.1 6 Noroeste 9 Noroeste 0 -- -- 81
2019-04-17 04:00:00 9.5 2 Norte 10 Noroeste 0 -- -- 81
2019-04-17 03:00:00 10.2 6 Norte 9 Norte 0 -- -- 79
2019-04-17 02:00:00 10.5 5 Norte 10 Norte 0 -- -- 79
2019-04-17 01:00:00 11 4 Norte 8 Norte 0 -- -- 79
2019-04-17 00:00:00 11.7 4 Nordeste 6 Norte 0 -- -- 73
2019-04-16 23:00:00 12.5 4 Norte 7 Sudeste 0 -- -- 72
2019-04-16 22:00:00 13.9 5 Este 13 Sudeste 0 -- -- 68
2019-04-16 21:00:00 13.8 4 Sur 16 Sur 0 -- -- 74
2019-04-16 20:00:00 14.9 8 Sur 18 Sur 0 -- -- 66
2019-04-16 19:00:00 16.4 9 Sur 24 Sur 0 -- -- 57
2019-04-16 18:00:00 17 12 Sur 27 Sudeste 0 -- -- 52
2019-04-16 17:00:00 18 14 Sur 31 Sudeste 0 -- -- 45
2019-04-16 16:00:00 18.9 19 Sudeste 32 Sudeste 0 -- -- 41
2019-04-16 15:00:00 18.6 19 Sudeste 33 Sur 0 -- -- 43
2019-04-16 14:00:00 20 17 Sudeste 31 Sudeste 0 -- -- 42
2019-04-16 13:00:00 18.9 17 Sur 26 Sur 0 -- -- 41
2019-04-16 12:00:00 19.5 7 Sur 21 Sudeste 0 -- -- 38
2019-04-16 11:00:00 18.2 5 Este 14 Sudeste 0 -- -- 43
2019-04-16 10:00:00 16.3 3 Nordeste 11 Este 0 -- -- 47
2019-04-16 09:00:00 16 4 Noroeste 7 Oeste 0 -- -- 56
2019-04-16 08:00:00 10.7 4 Noroeste 9 Oeste 0 -- -- 78
2019-04-16 07:00:00 10.1 0 Calma 6 Norte 0 -- -- 78
2019-04-16 06:00:00 11.2 3 Nordeste 15 Norte 0 -- -- 75
2019-04-16 05:00:00 11.8 6 Norte 12 Norte 0 -- -- 78
2019-04-16 04:00:00 11.3 4 Nordeste 11 Noroeste 0 -- -- 78
2019-04-16 03:00:00 11.4 4 Norte 10 Norte 0 -- -- 79
2019-04-16 02:00:00 12.1 2 Norte 8 Norte 0 -- -- 77
2019-04-16 01:00:00 13.2 6 Nordeste 12 Noroeste 0 -- -- 77
2019-04-16 00:00:00 13 7 Noroeste 12 Noroeste 0 -- -- 77
2019-04-15 23:00:00 11.9 3 Norte 6 Oeste 0 -- -- 77
2019-04-15 22:00:00 12.7 2 Sur 6 Sur 0 -- -- 75
2019-04-15 21:00:00 13.4 5 Sur 15 Sudeste 0 -- -- 71
2019-04-15 20:00:00 14.4 11 Sudeste 19 Sudeste 0 -- -- 62
2019-04-15 19:00:00 15.2 13 Sur 23 Sur 0 -- -- 52
2019-04-15 18:00:00 16 15 Sur 26 Sur 0 -- -- 50
2019-04-15 17:00:00 17 14 Sur 29 Sur 0 -- -- 44
2019-04-15 16:00:00 18.3 15 Sur 28 Sudeste 0 -- -- 41
2019-04-15 15:00:00 17.5 13 Sudeste 25 Sudeste 0 -- -- 41
2019-04-15 14:00:00 19.3 13 Sur 22 Sudeste 0 -- -- 41
2019-04-15 13:00:00 18 13 Sur 23 Sur 0 -- -- 43
2019-04-15 12:00:00 16.6 12 Sudeste 24 Sudeste 0 -- -- 52
2019-04-15 11:00:00 17.5 12 Sudeste 27 Sudeste 0 -- -- 48
2019-04-15 10:00:00 16.8 8 Este 15 Nordeste 0 -- -- 50
2019-04-15 09:00:00 14.6 5 Noroeste 8 Norte 0 -- -- 69
2019-04-15 08:00:00 11.5 5 Noroeste 11 Norte 0 -- -- 81
2019-04-15 07:00:00 11.1 6 Norte 14 Nordeste 0 -- -- 82
2019-04-15 06:00:00 11.8 7 Nordeste 12 Nordeste 0 -- -- 82
2019-04-15 05:00:00 12 8 Nordeste 17 Nordeste 0 -- -- 82
2019-04-15 04:00:00 11.8 2 Norte 11 Nordeste 0 -- -- 82
2019-04-15 03:00:00 11.4 4 Oeste 7 Oeste 0 -- -- 82
2019-04-15 02:00:00 11.7 0 Calma 8 Norte 0 -- -- 82
2019-04-15 01:00:00 12.2 7 Nordeste 10 Nordeste 0 -- -- 82
2019-04-15 00:00:00 12.5 4 Nordeste 11 Noroeste 0 -- -- 79
2019-04-14 23:00:00 13.2 5 Norte 14 Norte 0 -- -- 79
2019-04-14 22:00:00 13.5 5 Norte 10 Sur 0 -- -- 79
2019-04-14 21:00:00 14.6 4 Sur 16 Sur 0 -- -- 75
2019-04-14 20:00:00 16.3 10 Sur 17 Sudoeste 0 -- -- 65
2019-04-14 19:00:00 18.4 9 Sur 22 Sur 0 -- -- 54
2019-04-14 18:00:00 19.2 12 Sur 25 Sur 0 -- -- 46
2019-04-14 17:00:00 20.5 15 Sur 27 Sur 0 -- -- 38
2019-04-14 16:00:00 21.5 16 Sur 26 Sudeste 0 -- -- 37
2019-04-14 15:00:00 22.9 14 Sur 29 Sudeste 0 -- -- 35
2019-04-14 14:00:00 24.3 12 Sur 21 Sur 0 -- -- 27
2019-04-14 13:00:00 25.6 11 Noroeste 19 Norte 0 -- -- 26
2019-04-14 12:00:00 22.6 13 Noroeste 26 Noroeste 0 -- -- 27
2019-04-14 11:00:00 21.4 13 Noroeste 19 Noroeste 0 -- -- 29
2019-04-14 10:00:00 16.6 0 Calma 8 Sudeste 0 -- -- 35
2019-04-14 09:00:00 14.1 5 Noroeste 14 Noroeste 0 -- -- 37
2019-04-14 08:00:00 11.6 6 Noroeste 13 Noroeste 0 -- -- 40
2019-04-14 07:00:00 10.7 8 Norte 14 Noroeste 0 -- -- 43
2019-04-14 06:00:00 10.1 9 Noroeste 19 Norte 0 -- -- 45
2019-04-14 05:00:00 8 6 Norte 13 Norte 0 -- -- 49
2019-04-14 04:00:00 8.5 5 Norte 10 Norte 0 -- -- 48
2019-04-14 03:00:00 11.3 6 Noroeste 18 Noroeste 0 -- -- 40
2019-04-14 02:00:00 11.2 0 Calma 10 Noroeste 0 -- -- 47
2019-04-14 01:00:00 10.3 4 Nordeste 19 Noroeste 0 -- -- 57
2019-04-14 00:00:00 11.1 4 Norte 8 Noroeste 0 -- -- 62
2019-04-13 23:00:00 11.3 2 Norte 8 Noroeste 0 -- -- 65
2019-04-13 22:00:00 13.4 2 Sudoeste 10 Sur 0 -- -- 58
2019-04-13 21:00:00 14.6 5 Sur 10 Sur 0 -- -- 48
2019-04-13 20:00:00 17.4 8 Sur 18 Sur 0 -- -- 38
2019-04-13 19:00:00 19 10 Sur 22 Sur 0 -- -- 35
2019-04-13 18:00:00 19.8 13 Sur 24 Sudoeste 0 -- -- 34
2019-04-13 17:00:00 21.2 14 Sur 25 Sur 0 -- -- 33
2019-04-13 16:00:00 20.9 14 Sur 25 Sur 0 -- -- 32
2019-04-13 15:00:00 19.1 14 Sudoeste 24 Sudoeste 0 -- -- 34
2019-04-13 14:00:00 20.8 10 Sur 22 Sudoeste 0 -- -- 30
2019-04-13 13:00:00 20.9 11 Sur 25 Sur 0 -- -- 31
2019-04-13 12:00:00 20.1 9 Sur 19 Sudeste 0 -- -- 32
2019-04-13 11:00:00 19.6 6 Sur 16 Sur 0 -- -- 30
2019-04-13 10:00:00 16.4 7 Nordeste 12 Nordeste 0 -- -- 35
2019-04-13 09:00:00 13.5 4 Norte 9 Noroeste 0 -- -- 47
2019-04-13 08:00:00 6.8 6 Norte 11 Norte 0 -- -- 75
2019-04-13 07:00:00 7.2 7 Norte 12 Norte 0 -- -- 67
2019-04-13 06:00:00 6.6 9 Nordeste 12 Norte 0 -- -- 68
2019-04-13 05:00:00 6.3 2 Norte 6 Norte 0 -- -- 66
2019-04-13 04:00:00 7.5 2 Este 6 Nordeste 0 -- -- 62
2019-04-13 03:00:00 9.2 3 Nordeste 8 Norte 0 -- -- 57
2019-04-13 02:00:00 8.5 6 Norte 10 Norte 0 -- -- 62
2019-04-13 01:00:00 10 7 Norte 11 Norte 0 -- -- 60
2019-04-13 00:00:00 10.4 6 Norte 10 Norte 0 -- -- 61
2019-04-12 23:00:00 10.4 4 Norte 8 Norte 0 -- -- 61
2019-04-12 22:00:00 13 0 Calma 6 Sur 0 -- -- 54
2019-04-12 21:00:00 14.1 6 Sur 17 Sur 0 -- -- 52
2019-04-12 20:00:00 17.1 9 Sur 19 Sudoeste 0 -- -- 39
2019-04-12 19:00:00 19.3 12 Sudoeste 21 Sudoeste 0 -- -- 32
2019-04-12 18:00:00 20 12 Sudoeste 22 Sudoeste 0 -- -- 31
2019-04-12 17:00:00 21.4 14 Sur 24 Sur 0 -- -- 30
2019-04-12 16:00:00 21.7 10 Sur 22 Sudeste 0 -- -- 32
2019-04-12 15:00:00 21.7 10 Sur 32 Sudeste 0 -- -- 32
2019-04-12 14:00:00 21.3 8 Sudeste 23 Noroeste 0 -- -- 31
2019-04-12 13:00:00 21.1 5 Norte 25 Noroeste 0 -- -- 28
2019-04-12 12:00:00 20 16 Noroeste 34 Noroeste 0 -- -- 31
2019-04-12 11:00:00 18.8 20 Noroeste 34 Norte 0 -- -- 35
2019-04-12 10:00:00 17.4 14 Noroeste 24 Noroeste 0 -- -- 38
2019-04-12 09:00:00 12.6 13 Noroeste 25 Norte 0 -- -- 45
2019-04-12 08:00:00 11.8 12 Noroeste 26 Noroeste 0 -- -- 46
2019-04-12 07:00:00 11.5 13 Noroeste 27 Noroeste 0 -- -- 45
2019-04-12 06:00:00 11.8 15 Noroeste 31 Norte 0 -- -- 45
2019-04-12 05:00:00 11.6 12 Noroeste 34 Noroeste 0 -- -- 45
2019-04-12 04:00:00 12.1 15 Noroeste 30 Noroeste 0 -- -- 43
2019-04-12 03:00:00 12.4 14 Noroeste 34 Norte 0 -- -- 42
2019-04-12 02:00:00 12.9 17 Noroeste 47 Oeste 0 -- -- 40
2019-04-12 01:00:00 13.7 24 Noroeste 45 Noroeste 0 -- -- 40
2019-04-12 00:00:00 14 26 Noroeste 46 Noroeste 0 -- -- 39
2019-04-11 23:00:00 14.8 22 Noroeste 42 Noroeste 0 -- -- 38
2019-04-11 22:00:00 15.6 21 Noroeste 39 Noroeste 0 -- -- 36
2019-04-11 21:00:00 15.8 21 Noroeste 47 Noroeste 0 -- -- 34
2019-04-11 20:00:00 17.5 21 Noroeste 40 Noroeste 0 -- -- 30
2019-04-11 19:00:00 19.8 21 Noroeste 40 Noroeste 0 -- -- 26
2019-04-11 18:00:00 20.9 17 Noroeste 32 Oeste 0 -- -- 23
2019-04-11 17:00:00 22.2 15 Norte 31 Noroeste 0 -- -- 22
2019-04-11 16:00:00 21 10 Norte 35 Noroeste 0 -- -- 22
2019-04-11 15:00:00 22 16 Noroeste 32 Noroeste 0 -- -- 24
2019-04-11 14:00:00 22.2 14 Noroeste 36 Noroeste 0 -- -- 25
2019-04-11 13:00:00 20.8 19 Noroeste 43 Noroeste 0 -- -- 28
2019-04-11 12:00:00 19.5 21 Noroeste 40 Noroeste 0 -- -- 30
2019-04-11 11:00:00 18.2 19 Noroeste 43 Noroeste 0 -- -- 32
2019-04-11 10:00:00 16 23 Noroeste 47 Norte 0 -- -- 38
2019-04-11 09:00:00 14.5 23 Noroeste 40 Noroeste 0 -- -- 42
2019-04-11 08:00:00 11.7 17 Noroeste 31 Noroeste 0 -- -- 46
2019-04-11 07:00:00 11.5 16 Noroeste 33 Noroeste 0 -- -- 47
2019-04-11 06:00:00 11.6 16 Noroeste 35 Noroeste 0 -- -- 47
2019-04-11 05:00:00 11.9 17 Noroeste 41 Noroeste 0 -- -- 47
2019-04-11 04:00:00 12.1 19 Noroeste 33 Noroeste 0 -- -- 46
2019-04-11 03:00:00 12.3 16 Noroeste 30 Noroeste 0 -- -- 46
2019-04-11 02:00:00 12 8 Noroeste 22 Norte 0 -- -- 46
2019-04-11 01:00:00 12.9 8 Norte 15 Norte 0 -- -- 45
2019-04-11 00:00:00 13.8 8 Noroeste 21 Noroeste 0 -- -- 44
2019-04-10 23:00:00 15.1 12 Noroeste 22 Noroeste 0 -- -- 43
2019-04-10 22:00:00 13.6 5 Nordeste 11 Nordeste 0 -- -- 55
2019-04-10 21:00:00 13.6 0 Calma 17 Sudoeste 0 -- -- 52
2019-04-10 20:00:00 15.9 9 Sudoeste 18 Sudoeste 0 -- -- 42
2019-04-10 19:00:00 18 8 Sudoeste 19 Sur 0 -- -- 35
2019-04-10 18:00:00 17 12 Sur 24 Sur 0 -- -- 37
2019-04-10 17:00:00 18.8 14 Sur 26 Sur 0 -- -- 35
2019-04-10 16:00:00 19.4 8 Sur 21 Sur 0 -- -- 33
2019-04-10 15:00:00 19.3 6 Norte 24 Noroeste 0 -- -- 27
2019-04-10 14:00:00 19.8 6 Noroeste 22 Norte 0 -- -- 28
2019-04-10 13:00:00 18.2 9 Norte 29 Noroeste 0 -- -- 29
2019-04-10 12:00:00 18.8 18 Noroeste 31 Noroeste 0 -- -- 30
2019-04-10 11:00:00 18.9 17 Noroeste 36 Noroeste 0 -- -- 32
2019-04-10 10:00:00 17.5 15 Noroeste 31 Norte 0 -- -- 34
2019-04-10 09:00:00 15 10 Norte 22 Norte 0 -- -- 39
2019-04-10 08:00:00 11.3 6 Noroeste 15 Noroeste 0 -- -- 46
2019-04-10 07:00:00 12.1 11 Noroeste 23 Norte 0 -- -- 45
2019-04-10 06:00:00 11.8 9 Noroeste 22 Noroeste 0 -- -- 45
2019-04-10 05:00:00 12.7 10 Noroeste 25 Noroeste 0 -- -- 44
2019-04-10 04:00:00 12.7 10 Oeste 25 Noroeste 0 -- -- 45
2019-04-10 03:00:00 12.9 10 Noroeste 27 Noroeste 0 -- -- 43
2019-04-10 02:00:00 13.1 10 Norte 36 Noroeste 0 -- -- 42
2019-04-10 01:00:00 13.3 15 Noroeste 30 Noroeste 0 -- -- 41
2019-04-10 00:00:00 13.9 13 Noroeste 26 Noroeste 0 -- -- 40
2019-04-09 23:00:00 14.3 14 Noroeste 25 Noroeste 0 -- -- 41
2019-04-09 22:00:00 14.7 17 Noroeste 28 Noroeste 0 -- -- 41
2019-04-09 21:00:00 15.1 9 Nordeste 24 Nordeste 0 -- -- 39
2019-04-09 20:00:00 17 10 Oeste 17 Sudoeste 0 -- -- 32
2019-04-09 19:00:00 19.1 5 Sudoeste 13 Sudoeste 0 -- -- 29
2019-04-09 18:00:00 18.3 8 Sudoeste 23 Sudoeste 0 -- -- 31
2019-04-09 17:00:00 17.7 12 Sudoeste 27 Sur 0 -- -- 38
2019-04-09 16:00:00 19.1 17 Sudoeste 28 Sur 0 -- -- 29
2019-04-09 15:00:00 18.9 15 Sur 32 Sudeste 0 -- -- 28
2019-04-09 14:00:00 21.2 4 Nordeste 28 Oeste 0 -- -- 23
2019-04-09 13:00:00 21.1 15 Noroeste 28 Oeste 0 -- -- 24
2019-04-09 12:00:00 20.6 17 Noroeste 31 Oeste 0 -- -- 25
2019-04-09 11:00:00 20.7 11 Noroeste 30 Noroeste 0 -- -- 27
2019-04-09 10:00:00 17.5 17 Noroeste 30 Noroeste 0 -- -- 32
2019-04-09 09:00:00 14.5 5 Nordeste 17 Norte 0 -- -- 47
2019-04-09 08:00:00 11 6 Norte 13 Noroeste 0 -- -- 58
2019-04-09 07:00:00 11 9 Noroeste 17 Noroeste 0 -- -- 56
2019-04-09 06:00:00 11.2 8 Norte 17 Oeste 0 -- -- 63
2019-04-09 05:00:00 12.2 12 Oeste 26 Noroeste 0 -- -- 55
2019-04-09 04:00:00 11.8 6 Norte 18 Noroeste 0 -- -- 69
2019-04-09 03:00:00 11.6 5 Norte 19 Noroeste 0 -- -- 76
2019-04-09 02:00:00 10.6 11 Noroeste 18 Noroeste 0 -- -- 82
2019-04-09 01:00:00 11.6 5 Nordeste 14 Noroeste 0 -- -- 82
2019-04-09 00:00:00 12.5 8 Nordeste 12 Este 0 -- -- 82
2019-04-08 23:00:00 13.3 2 Nordeste 6 Norte 0 -- -- 82
2019-04-08 22:00:00 14.2 0 Calma 7 Noroeste 0.1 -- -- 81
2019-04-08 21:00:00 15.5 3 Nordeste 6 Nordeste 0 -- -- 71
2019-04-08 20:00:00 17 0 Calma 5 Este 0 -- -- 57
2019-04-08 19:00:00 17.3 2 Este 7 Sur 0 -- -- 57
2019-04-08 18:00:00 16.9 6 Sudoeste 17 Sur 0.1 -- -- 57
2019-04-08 17:00:00 15.9 7 Sur 22 Sur 1.3 -- -- 69
2019-04-08 16:00:00 20 12 Sudoeste 23 Sur 0 -- -- 36
2019-04-08 15:00:00 20.7 11 Sur 21 Sur 0 -- -- 35
2019-04-08 14:00:00 18.3 11 Sur 20 Sudeste 0 -- -- 39
2019-04-08 13:00:00 18 13 Sur 23 Sudeste 0 -- -- 38
2019-04-08 12:00:00 20.3 7 Sur 17 Sur 0 -- -- 33
2019-04-08 11:00:00 19.8 3 Nordeste 12 Nordeste 0 -- -- 32
2019-04-08 10:00:00 15.9 4 Norte 7 Nordeste 0 -- -- 39
2019-04-08 09:00:00 12 4 Nordeste 13 Norte 0 -- -- 64
2019-04-08 08:00:00 9.8 8 Noroeste 11 Noroeste 0 -- -- 70
2019-04-08 07:00:00 8.8 7 Norte 13 Nordeste 0 -- -- 72
2019-04-08 06:00:00 8.5 6 Nordeste 10 Noroeste 0 -- -- 65
2019-04-08 05:00:00 9 6 Oeste 9 Oeste 0 -- -- 69
2019-04-08 04:00:00 8.5 5 Norte 12 Noroeste 0 -- -- 70
2019-04-08 03:00:00 7.7 7 Noroeste 12 Oeste 0 -- -- 69
2019-04-08 02:00:00 8.2 8 Noroeste 13 Noroeste 0 -- -- 77
2019-04-08 01:00:00 9.3 8 Noroeste 11 Oeste 0 -- -- 78
2019-04-08 00:00:00 10.5 6 Norte 13 Norte 0 -- -- 73
2019-04-07 23:00:00 11.1 6 Norte 13 Este 0 -- -- 69
2019-04-07 22:00:00 12.9 6 Este 16 Sur 0 -- -- 48
2019-04-07 21:00:00 14.5 2 Nordeste 11 Noroeste 0 -- -- 33
2019-04-07 20:00:00 17.3 7 Noroeste 22 Norte 0 -- -- 26
2019-04-07 19:00:00 18.6 13 Noroeste 54 Noroeste 0 -- -- 25
2019-04-07 18:00:00 19.1 16 Noroeste 39 Noroeste 0 -- -- 25
2019-04-07 17:00:00 19.4 21 Noroeste 38 Oeste 0 -- -- 25
2019-04-07 16:00:00 19.7 19 Noroeste 41 Noroeste 0 -- -- 25
2019-04-07 15:00:00 20 20 Norte 35 Noroeste 0 -- -- 25
2019-04-07 14:00:00 19.9 16 Noroeste 35 Noroeste 0 -- -- 25
2019-04-07 13:00:00 18.5 16 Noroeste 29 Noroeste 0 -- -- 28
2019-04-07 12:00:00 16.8 12 Noroeste 22 Oeste 0 -- -- 31
2019-04-07 11:00:00 16.8 15 Oeste 31 Oeste 0 -- -- 32
2019-04-07 10:00:00 15.6 15 Oeste 35 Oeste 0 -- -- 32
2019-04-07 09:00:00 13.9 19 Noroeste 41 Oeste 0 -- -- 37
2019-04-07 08:00:00 10.8 10 Oeste 26 Noroeste 0 -- -- 45
2019-04-07 07:00:00 10.7 12 Oeste 22 Oeste 0 -- -- 46
2019-04-07 06:00:00 9.4 10 Oeste 18 Oeste 0 -- -- 53
2019-04-07 05:00:00 7.4 4 Norte 15 Norte 0 -- -- 64
2019-04-07 04:00:00 8.2 7 Norte 11 Noroeste 0 -- -- 62
2019-04-07 03:00:00 8 6 Noroeste 10 Noroeste 0 -- -- 64
2019-04-07 02:00:00 8.4 7 Noroeste 9 Nordeste 0 -- -- 62
2019-04-07 01:00:00 8.9 5 Oeste 17 Noroeste 0 -- -- 56
2019-04-07 00:00:00 8.7 11 Oeste 16 Noroeste 0 -- -- 64
2019-04-06 23:00:00 9.1 6 Noroeste 12 Noroeste 0 -- -- 70
2019-04-06 22:00:00 9.4 7 Norte 13 Noroeste 0 -- -- 63
2019-04-06 21:00:00 10.4 8 Noroeste 14 Noroeste 0 -- -- 57
2019-04-06 20:00:00 12.4 8 Noroeste 27 Noroeste 0 -- -- 48
2019-04-06 19:00:00 12.1 16 Noroeste 51 Noroeste 0 -- -- 48
2019-04-06 18:00:00 15.9 11 Sudoeste 25 Sur 0 -- -- 30
2019-04-06 17:00:00 17.4 6 Sudoeste 18 Sur 0 -- -- 24
2019-04-06 16:00:00 19.3 6 Sur 22 Sudoeste 0 -- -- 26
2019-04-06 15:00:00 17 13 Sur 27 Sudoeste 0 -- -- 28
2019-04-06 14:00:00 15.7 16 Sur 29 Sur 0 -- -- 28
2019-04-06 13:00:00 18.7 3 Oeste 21 Sudeste 0 -- -- 25
2019-04-06 12:00:00 17.2 8 Sudeste 19 Sur 0 -- -- 26
2019-04-06 11:00:00 16.7 6 Sudoeste 15 Sudoeste 0 -- -- 27
2019-04-06 10:00:00 16.7 7 Oeste 18 Sudoeste 0 -- -- 29
2019-04-06 09:00:00 13 8 Noroeste 14 Oeste 0 -- -- 40
2019-04-06 08:00:00 7.8 8 Noroeste 12 Noroeste 0 -- -- 51
2019-04-06 07:00:00 7.8 6 Oeste 21 Oeste 0 -- -- 47
2019-04-06 06:00:00 7.7 5 Sudoeste 16 Oeste 0 -- -- 51
2019-04-06 05:00:00 8.3 4 Noroeste 21 Norte 0 -- -- 50
2019-04-06 04:00:00 9.9 8 Noroeste 20 Noroeste 0 -- -- 45
2019-04-06 03:00:00 10 6 Noroeste 24 Oeste 0 -- -- 47
2019-04-06 02:00:00 8.7 12 Noroeste 22 Noroeste 0 -- -- 72
2019-04-06 01:00:00 8.4 4 Nordeste 8 Nordeste 0 -- -- 82
2019-04-06 00:00:00 10.1 4 Sur 8 Sudoeste 0 -- -- 79
2019-04-05 23:00:00 10.5 6 Sudoeste 17 Sudoeste 0 -- -- 75
2019-04-05 22:00:00 11.1 5 Sudoeste 14 Sudoeste 0 -- -- 72
2019-04-05 21:00:00 11.1 7 Sudoeste 31 Oeste 0.2 -- -- 74
2019-04-05 20:00:00 12.9 16 Oeste 32 Oeste 0 -- -- 53
2019-04-05 19:00:00 14.5 6 Sudoeste 27 Sudoeste 0 -- -- 51
2019-04-05 18:00:00 14.7 16 Sur 30 Sudoeste 0 -- -- 48
2019-04-05 17:00:00 15.6 19 Sudoeste 34 Sur 0 -- -- 43
2019-04-05 16:00:00 18 20 Sur 35 Sur 0 -- -- 37
2019-04-05 15:00:00 17.3 18 Sur 32 Sur 0 -- -- 36
2019-04-05 14:00:00 19.1 13 Sudoeste 28 Sur 0 -- -- 38
2019-04-05 13:00:00 16.5 13 Sur 26 Sur 0 -- -- 41
2019-04-05 12:00:00 15.4 10 Sudoeste 20 Sudoeste 0 -- -- 47
2019-04-05 11:00:00 13 7 Sudoeste 11 Sudoeste 0 -- -- 58
2019-04-05 10:00:00 11.4 2 Noroeste 6 Noroeste 0 -- -- 67
2019-04-05 09:00:00 9.7 3 Noroeste 6 Noroeste 0 -- -- 70
2019-04-05 08:00:00 9.6 3 Noroeste 9 Noroeste 0 -- -- 76
2019-04-05 07:00:00 8.6 5 Noroeste 9 Noroeste 0 -- -- 76
2019-04-05 06:00:00 8 5 Noroeste 8 Noroeste 0 -- -- 76
2019-04-05 05:00:00 7.7 4 Norte 9 Oeste 0 -- -- 75
2019-04-05 04:00:00 8.1 3 Norte 13 Oeste 0 -- -- 75
2019-04-05 03:00:00 7.4 5 Noroeste 11 Noroeste 0 -- -- 76
2019-04-05 02:00:00 7.4 6 Noroeste 10 Noroeste 0 -- -- 76
2019-04-05 01:00:00 7.4 3 Norte 8 Noroeste 0 -- -- 76
2019-04-05 00:00:00 8.1 3 Nordeste 9 Noroeste 0 -- -- 71
2019-04-04 23:00:00 8.3 0 Calma 6 Oeste 0 -- -- 66
2019-04-04 22:00:00 9.5 5 Sudoeste 10 Oeste 0 -- -- 57
2019-04-04 21:00:00 10.1 8 Sudoeste 17 Sudoeste 0 -- -- 47
2019-04-04 20:00:00 12.2 10 Sudoeste 23 Sudoeste 0 -- -- 35
2019-04-04 19:00:00 14 12 Sudoeste 23 Sur 0 -- -- 31
2019-04-04 18:00:00 14.5 15 Sur 30 Sudoeste 0 -- -- 28
2019-04-04 17:00:00 16.1 16 Sur 30 Sur 0 -- -- 28
2019-04-04 16:00:00 17.1 15 Sur 41 Sudeste 0 -- -- 28
2019-04-04 15:00:00 16.8 16 Este 28 Sudeste 0 -- -- 24
2019-04-04 14:00:00 17.9 14 Oeste 29 Oeste 0 -- -- 20
2019-04-04 13:00:00 15.8 12 Oeste 25 Norte 0 -- -- 22
2019-04-04 12:00:00 16.1 11 Noroeste 22 Noroeste 0 -- -- 23
2019-04-04 11:00:00 13.5 7 Nordeste 28 Noroeste 0 -- -- 26
2019-04-04 10:00:00 13.2 9 Noroeste 29 Oeste 0 -- -- 28
2019-04-04 09:00:00 10.9 11 Noroeste 23 Noroeste 0 -- -- 34
2019-04-04 08:00:00 6.9 17 Noroeste 41 Norte 0 -- -- 41
2019-04-04 07:00:00 7.4 21 Noroeste 41 Norte 0 -- -- 40
2019-04-04 06:00:00 7.1 17 Norte 35 Norte 0 -- -- 41
2019-04-04 05:00:00 7.8 19 Noroeste 35 Noroeste 0 -- -- 42
2019-04-04 04:00:00 7.5 12 Noroeste 26 Noroeste 0 -- -- 45
2019-04-04 03:00:00 8.2 9 Noroeste 22 Norte 0 -- -- 47
2019-04-04 02:00:00 7.8 8 Noroeste 17 Norte 0 -- -- 48
2019-04-04 01:00:00 8.4 7 Norte 28 Norte 0 -- -- 45
2019-04-04 00:00:00 9.6 4 Norte 18 Norte 0 -- -- 45
2019-04-03 23:00:00 9 11 Noroeste 22 Noroeste 0 -- -- 59
2019-04-03 22:00:00 8.4 5 Norte 12 Norte 0.1 -- -- 81
2019-04-03 21:00:00 9.2 8 Norte 15 Norte 0.2 -- -- 79
2019-04-03 20:00:00 9.3 6 Nordeste 17 Norte 2.1 -- -- 79
2019-04-03 19:00:00 10.9 10 Norte 18 Norte 0 -- -- 67
2019-04-03 18:00:00 12.5 6 Norte 21 Noroeste 1.5 -- -- 79
2019-04-03 17:00:00 12.3 6 Norte 26 Nordeste 1 -- -- 79
2019-04-03 16:00:00 15.3 12 Nordeste 22 Nordeste 0 -- -- 49
2019-04-03 15:00:00 16.4 8 Este 18 Nordeste 0 -- -- 44
2019-04-03 14:00:00 16.1 12 Nordeste 17 Nordeste 0 -- -- 48
2019-04-03 13:00:00 16.5 9 Sur 16 Sudeste 0 -- -- 57
2019-04-03 12:00:00 16.3 7 Norte 13 Norte 0 -- -- 57
2019-04-03 11:00:00 16.3 5 Nordeste 12 Este 0 -- -- 60
2019-04-03 10:00:00 14.3 3 Nordeste 10 Norte 0 -- -- 72
2019-04-03 09:00:00 14.7 6 Nordeste 13 Nordeste 0 -- -- 75
2019-04-03 08:00:00 11.9 6 Norte 10 Norte 0 -- -- 83
2019-04-03 07:00:00 12 5 Norte 10 Noroeste 0 -- -- 83
2019-04-03 06:00:00 11.4 6 Oeste 13 Oeste 0 -- -- 83
2019-04-03 05:00:00 12.2 4 Este 15 Norte 0 -- -- 83
2019-04-03 04:00:00 10.6 9 Norte 17 Norte 0 -- -- 82
2019-04-03 03:00:00 10.2 9 Norte 14 Noroeste 0 -- -- 75
2019-04-03 02:00:00 11.2 6 Norte 10 Norte 0 -- -- 70
2019-04-03 01:00:00 13.4 4 Noroeste 10 Sudoeste 0 -- -- 62
2019-04-03 00:00:00 13.6 7 Noroeste 11 Norte 0 -- -- 59
2019-04-02 23:00:00 12.9 9 Noroeste 23 Oeste 0 -- -- 63
2019-04-02 22:00:00 13.9 15 Noroeste 26 Noroeste 0 -- -- 61
2019-04-02 21:00:00 14.6 0 Calma 9 Norte 0 -- -- 79
2019-04-02 20:00:00 15 6 Sur 16 Sudoeste 0 -- -- 72
2019-04-02 19:00:00 18.7 5 Oeste 15 Oeste 0 -- -- 42
2019-04-02 18:00:00 19.3 8 Oeste 21 Oeste 0 -- -- 43
2019-04-02 17:00:00 18.4 14 Sudoeste 26 Sudoeste 0 -- -- 52
2019-04-02 16:00:00 18 8 Sudoeste 15 Sudoeste 0 -- -- 47
2019-04-02 15:00:00 17.1 10 Sudoeste 21 Sudoeste 0 -- -- 54
2019-04-02 14:00:00 18.6 11 Sur 21 Sur 0 -- -- 45
2019-04-02 13:00:00 18.8 5 Sur 12 Sudeste 0 -- -- 48
2019-04-02 12:00:00 16.9 5 Sur 10 Sur 0 -- -- 50
2019-04-02 11:00:00 14.9 5 Sur 10 Sur 0 -- -- 57
2019-04-02 10:00:00 14.9 5 Sur 9 Sudeste 0 -- -- 54
2019-04-02 09:00:00 11.6 5 Norte 10 Noroeste 0 -- -- 68
2019-04-02 08:00:00 7.3 5 Norte 10 Noroeste 0 -- -- 83
2019-04-02 07:00:00 6.9 6 Norte 11 Noroeste 0 -- -- 82
2019-04-02 06:00:00 7.6 6 Noroeste 12 Norte 0 -- -- 80
2019-04-02 05:00:00 7.6 6 Norte 9 Nordeste 0 -- -- 79
2019-04-02 04:00:00 8.7 6 Nordeste 9 Norte 0 -- -- 77
2019-04-02 03:00:00 8.1 4 Norte 8 Norte 0 -- -- 79
2019-04-02 02:00:00 8.2 6 Nordeste 9 Noroeste 0 -- -- 79
2019-04-02 01:00:00 8.4 4 Nordeste 7 Nordeste 0 -- -- 79
2019-04-02 00:00:00 9.2 3 Nordeste 8 Norte 0 -- -- 78
2019-04-01 23:00:00 10.8 5 Oeste 7 Sur 0 -- -- 75
2019-04-01 22:00:00 12.1 2 Sudeste 5 Sudoeste 0 -- -- 70
2019-04-01 21:00:00 12.2 3 Sur 10 Sudoeste 0 -- -- 67
2019-04-01 20:00:00 14.2 7 Sudoeste 13 Sudoeste 0 -- -- 48
2019-04-01 19:00:00 16.6 7 Sur 15 Sudeste 0 -- -- 33
2019-04-01 18:00:00 17 8 Sur 14 Sur 0 -- -- 33
2019-04-01 17:00:00 16.5 6 Sur 15 Sur 0 -- -- 43
2019-04-01 16:00:00 16.8 7 Sur 14 Sur 0 -- -- 43
2019-04-01 15:00:00 17.4 3 Sur 10 Noroeste 0 -- -- 36
2019-04-01 14:00:00 17.9 3 Este 12 Nordeste 0 -- -- 38
2019-04-01 13:00:00 15.3 6 Nordeste 13 Norte 0 -- -- 49
2019-04-01 12:00:00 13.3 7 Nordeste 16 Nordeste 0 -- -- 65
2019-04-01 11:00:00 12.2 10 Nordeste 18 Norte 0 -- -- 72
2019-04-01 10:00:00 11.8 8 Norte 15 Noroeste 0 -- -- 72
2019-04-01 09:00:00 10.8 9 Norte 17 Nordeste 0 -- -- 79
2019-04-01 08:00:00 10.5 9 Nordeste 17 Nordeste 0 -- -- 79
2019-04-01 07:00:00 10.8 7 Nordeste 17 Nordeste 0 -- -- 81
2019-04-01 06:00:00 10.8 7 Norte 14 Nordeste 0 -- -- 82
2019-04-01 05:00:00 10.9 9 Nordeste 14 Nordeste 0 -- -- 83
2019-04-01 04:00:00 11 6 Nordeste 15 Nordeste 0 -- -- 83
2019-04-01 03:00:00 11.3 9 Nordeste 16 Nordeste 0 -- -- 83
2019-04-01 02:00:00 11.5 5 Norte 13 Noroeste 0.1 -- -- 83
2019-04-01 01:00:00 11.7 6 Norte 12 Norte 0.1 -- -- 83
2019-04-01 00:00:00 11.9 5 Norte 14 Nordeste 0.1 -- -- 83
2019-03-31 23:00:00 12 6 Norte 10 Nordeste 0 -- -- 83
2019-03-31 22:00:00 11.9 6 Norte 11 Norte 0.2 -- -- 83
2019-03-31 21:00:00 11.9 4 Nordeste 10 Nordeste 0.2 -- -- 83
2019-03-31 20:00:00 12.2 8 Nordeste 18 Nordeste 0.5 -- -- 83
2019-03-31 19:00:00 12.3 7 Nordeste 19 Noroeste 0.5 -- -- 83
2019-03-31 18:00:00 12.3 9 Nordeste 18 Nordeste 0.3 -- -- 83
2019-03-31 17:00:00 12.7 9 Nordeste 15 Nordeste 1 -- -- 82
2019-03-31 16:00:00 12.4 6 Nordeste 21 Nordeste 1.8 -- -- 82
2019-03-31 15:00:00 12.9 13 Nordeste 22 Nordeste 0.1 -- -- 76
2019-03-31 14:00:00 13.5 8 Nordeste 21 Nordeste 0 -- -- 71
2019-03-31 13:00:00 13.7 12 Nordeste 21 Nordeste 0.2 -- -- 74
2019-03-31 12:00:00 12.4 9 Nordeste 20 Este 0.1 -- -- 72
2019-03-31 11:00:00 13 12 Nordeste 22 Este 0 -- -- 64
2019-03-31 10:00:00 12.1 8 Nordeste 14 Nordeste 0 -- -- 70
2019-03-31 09:00:00 11.2 8 Norte 13 Noroeste 0 -- -- 75
2019-03-31 08:00:00 10.2 7 Norte 11 Noroeste 0 -- -- 78
2019-03-31 07:00:00 9.8 6 Norte 10 Noroeste 0 -- -- 79
2019-03-31 06:00:00 9.4 7 Norte 12 Norte 0 -- -- 81
2019-03-31 05:00:00 9.1 6 Norte 11 Norte 0 -- -- 81
2019-03-31 03:00:00 7.5 6 Noroeste 9 Noroeste 0 -- -- 82
2019-03-31 01:00:00 7.4 7 Noroeste 10 Noroeste 0 -- -- 80
2019-03-31 00:00:00 7.9 6 Noroeste 10 Noroeste 0 -- -- 79
2019-03-30 23:00:00 8.5 6 Noroeste 10 Noroeste 0 -- -- 77
2019-03-30 22:00:00 8.9 5 Norte 8 Nordeste 0 -- -- 76
2019-03-30 21:00:00 10.7 0 Calma 4 Nordeste 0 -- -- 68
2019-03-30 20:00:00 11.5 0 Calma 16 Este 0 -- -- 65
2019-03-30 19:00:00 13 11 Este 26 Este 0 -- -- 57
2019-03-30 18:00:00 14.2 16 Este 29 Nordeste 0 -- -- 53
2019-03-30 17:00:00 15.7 13 Este 31 Este 0 -- -- 46
2019-03-30 16:00:00 16.2 16 Este 32 Este 0 -- -- 47
2019-03-30 15:00:00 17.2 18 Este 34 Este 0 -- -- 47
2019-03-30 14:00:00 17.3 14 Este 29 Este 0 -- -- 44
2019-03-30 13:00:00 17 14 Este 26 Sudeste 0 -- -- 44
2019-03-30 12:00:00 16.8 10 Este 18 Nordeste 0 -- -- 47
2019-03-30 11:00:00 14 5 Este 11 Este 0 -- -- 54
2019-03-30 10:00:00 12.7 5 Nordeste 14 Nordeste 0 -- -- 63
2019-03-30 09:00:00 11.3 8 Norte 13 Noroeste 0 -- -- 68
2019-03-30 08:00:00 11.8 6 Noroeste 14 Noroeste 0 -- -- 62
2019-03-30 07:00:00 5.9 9 Noroeste 14 Oeste 0 -- -- 82
2019-03-30 06:00:00 6.3 7 Noroeste 10 Noroeste 0 -- -- 79
2019-03-30 05:00:00 6.4 5 Noroeste 12 Noroeste 0 -- -- 78
2019-03-30 04:00:00 5.7 7 Noroeste 13 Noroeste 0 -- -- 79
2019-03-30 03:00:00 6 7 Noroeste 12 Noroeste 0 -- -- 77
2019-03-30 02:00:00 7 8 Noroeste 15 Noroeste 0 -- -- 70
2019-03-30 01:00:00 6.8 7 Oeste 11 Noroeste 0 -- -- 77
2019-03-30 00:00:00 7 6 Noroeste 11 Oeste 0 -- -- 77
2019-03-29 23:00:00 7.8 4 Noroeste 8 Norte 0 -- -- 76
2019-03-29 22:00:00 8.6 4 Noroeste 6 Noroeste 0 -- -- 73
2019-03-29 21:00:00 10.4 0 Calma 3 Norte 0 -- -- 67
2019-03-29 20:00:00 11.2 2 Sudeste 10 Sudeste 0 -- -- 61
2019-03-29 19:00:00 13.4 8 Sudeste 18 Sudeste 0 -- -- 47
2019-03-29 18:00:00 15.7 11 Sudeste 22 Sudeste 0 -- -- 38
2019-03-29 17:00:00 16 13 Sudeste 24 Este 0 -- -- 38
2019-03-29 16:00:00 18.7 13 Sudeste 28 Este 0 -- -- 39
2019-03-29 15:00:00 17.9 13 Sudeste 29 Sudeste 0 -- -- 40
2019-03-29 14:00:00 17.5 16 Sudeste 25 Sur 0 -- -- 43
2019-03-29 13:00:00 19.1 13 Sur 24 Sudeste 0 -- -- 42
2019-03-29 12:00:00 17.2 10 Sudeste 21 Sudeste 0 -- -- 48
2019-03-29 11:00:00 16.1 8 Sur 15 Sur 0 -- -- 50
2019-03-29 10:00:00 16 6 Sur 15 Sur 0 -- -- 56
2019-03-29 09:00:00 15.8 0 Calma 6 Noroeste 0 -- -- 43
2019-03-29 08:00:00 9.5 4 Norte 9 Norte 0 -- -- 51
2019-03-29 07:00:00 3.8 5 Nordeste 9 Norte 0 -- -- 67
2019-03-29 06:00:00 4.8 5 Norte 12 Norte 0 -- -- 60
2019-03-29 05:00:00 5.6 8 Norte 13 Norte 0 -- -- 55
2019-03-29 04:00:00 5.2 6 Norte 11 Norte 0 -- -- 58
2019-03-29 03:00:00 5.5 7 Norte 12 Norte 0 -- -- 58
2019-03-29 02:00:00 5.4 5 Nordeste 13 Norte 0 -- -- 64
2019-03-29 01:00:00 6.4 6 Norte 10 Norte 0 -- -- 67
2019-03-29 00:00:00 7.1 6 Norte 10 Norte 0 -- -- 69
2019-03-28 23:00:00 7.4 5 Nordeste 8 Nordeste 0 -- -- 73
2019-03-28 22:00:00 9 0 Calma 9 Norte 0 -- -- 74
2019-03-28 21:00:00 10 0 Calma 6 Sudoeste 0 -- -- 72
2019-03-28 20:00:00 11.5 4 Sudoeste 16 Sur 0 -- -- 68
2019-03-28 19:00:00 13.8 9 Sur 19 Sudoeste 0 -- -- 52
2019-03-28 18:00:00 16 12 Sur 20 Sur 0 -- -- 37
2019-03-28 17:00:00 17.5 12 Sur 24 Sur 0 -- -- 32
2019-03-28 16:00:00 17.8 15 Sur 26 Sur 0 -- -- 28
2019-03-28 15:00:00 18.4 14 Sur 28 Sur 0 -- -- 27
2019-03-28 14:00:00 19.5 16 Sur 27 Sur 0 -- -- 27
2019-03-28 13:00:00 18.9 14 Sur 26 Sur 0 -- -- 26
2019-03-28 12:00:00 20.3 13 Sur 26 Sur 0 -- -- 26
2019-03-28 11:00:00 19.1 4 Este 15 Este 0 -- -- 28
2019-03-28 10:00:00 16.8 7 Nordeste 14 Nordeste 0 -- -- 35
2019-03-28 09:00:00 14.5 5 Nordeste 10 Nordeste 0 -- -- 43
2019-03-28 08:00:00 10 4 Nordeste 10 Nordeste 0 -- -- 57
2019-03-28 07:00:00 4.7 5 Nordeste 11 Norte 0 -- -- 73
2019-03-28 06:00:00 5.2 7 Norte 12 Norte 0 -- -- 72
2019-03-28 05:00:00 5.3 8 Nordeste 13 Nordeste 0 -- -- 70
2019-03-28 04:00:00 5.1 7 Nordeste 15 Norte 0 -- -- 64
2019-03-28 03:00:00 5.1 6 Nordeste 12 Nordeste 0 -- -- 64
2019-03-28 02:00:00 5 5 Nordeste 10 Norte 0 -- -- 66
2019-03-28 01:00:00 5.7 8 Norte 12 Norte 0 -- -- 64
2019-03-28 00:00:00 6.7 5 Norte 7 Nordeste 0 -- -- 65
2019-03-27 23:00:00 7.6 4 Nordeste 6 Nordeste 0 -- -- 64
2019-03-27 22:00:00 8.7 0 Calma 6 Sur 0 -- -- 60
2019-03-27 21:00:00 10.2 6 Sur 10 Sur 0 -- -- 58
2019-03-27 20:00:00 11.6 0 Calma 12 Sur 0 -- -- 56
2019-03-27 19:00:00 13.8 9 Sudoeste 24 Sudoeste 0 -- -- 45
2019-03-27 18:00:00 15.7 15 Sudoeste 24 Sudoeste 0 -- -- 41
2019-03-27 17:00:00 17 15 Sudoeste 24 Sur 0 -- -- 32
2019-03-27 16:00:00 18.2 14 Sur 27 Sudoeste 0 -- -- 33
2019-03-27 15:00:00 18.3 15 Sur 30 Sur 0 -- -- 32
2019-03-27 14:00:00 19 13 Sur 29 Sur 0 -- -- 31
2019-03-27 13:00:00 19.4 12 Sur 22 Sur 0 -- -- 31
2019-03-27 12:00:00 18.2 13 Sur 22 Sur 0 -- -- 34
2019-03-27 11:00:00 19.1 0 Calma 10 Oeste 0 -- -- 26
2019-03-27 10:00:00 18.1 4 Nordeste 15 Nordeste 0 -- -- 34
2019-03-27 09:00:00 13.7 10 Nordeste 17 Este 0 -- -- 42
2019-03-27 08:00:00 10.8 7 Norte 12 Norte 0 -- -- 58
2019-03-27 07:00:00 6.5 7 Norte 15 Norte 0 -- -- 76
2019-03-27 06:00:00 6.7 10 Norte 15 Norte 0 -- -- 76
2019-03-27 05:00:00 6.9 6 Norte 14 Norte 0 -- -- 76
2019-03-27 04:00:00 8 6 Nordeste 9 Norte 0 -- -- 74
2019-03-27 03:00:00 8.3 8 Norte 11 Norte 0 -- -- 72
2019-03-27 02:00:00 9.2 8 Noroeste 14 Oeste 0 -- -- 65
2019-03-27 01:00:00 10.2 3 Noroeste 6 Noroeste 0 -- -- 61
2019-03-27 00:00:00 11.8 3 Noroeste 8 Oeste 0 -- -- 56
2019-03-26 23:00:00 12.3 5 Oeste 10 Oeste 0 -- -- 53
2019-03-26 22:00:00 12.8 8 Sudoeste 13 Sudoeste 0 -- -- 52
2019-03-26 21:00:00 12.9 6 Sudoeste 18 Sur 0 -- -- 51
2019-03-26 20:00:00 13.2 9 Sur 21 Sur 0 -- -- 51
2019-03-26 19:00:00 13.5 14 Sur 30 Sur 0 -- -- 51
2019-03-26 18:00:00 14.5 18 Sur 36 Sudeste 0 -- -- 51
2019-03-26 17:00:00 17.9 17 Sudeste 28 Sudeste 0 -- -- 39
2019-03-26 16:00:00 18.1 16 Sudeste 29 Sur 0 -- -- 34
2019-03-26 15:00:00 20.7 14 Sudeste 26 Este 0 -- -- 30
2019-03-26 14:00:00 20.7 13 Este 25 Este 0 -- -- 28
2019-03-26 13:00:00 19.9 5 Sudoeste 15 Sur 0 -- -- 27
2019-03-26 12:00:00 19.8 6 Norte 21 Norte 0 -- -- 29
2019-03-26 11:00:00 18.6 10 Norte 21 Norte 0 -- -- 34
2019-03-26 10:00:00 16.5 10 Norte 18 Norte 0 -- -- 39
2019-03-26 09:00:00 14.3 11 Norte 23 Norte 0 -- -- 44
2019-03-26 08:00:00 11.7 11 Norte 21 Noroeste 0 -- -- 49
2019-03-26 07:00:00 9.7 12 Norte 21 Noroeste 0 -- -- 52
2019-03-26 06:00:00 8.6 10 Noroeste 17 Noroeste 0 -- -- 52
2019-03-26 05:00:00 8.6 7 Noroeste 15 Noroeste 0 -- -- 51
2019-03-26 04:00:00 9 8 Noroeste 16 Noroeste 0 -- -- 50
2019-03-26 03:00:00 10.2 10 Noroeste 18 Noroeste 0 -- -- 47
2019-03-26 02:00:00 10.7 7 Noroeste 25 Noroeste 0 -- -- 45
2019-03-26 01:00:00 11.6 10 Noroeste 16 Noroeste 0 -- -- 47
2019-03-26 00:00:00 9.3 5 Nordeste 10 Norte 0 -- -- 48
2019-03-25 23:00:00 12.7 4 Norte 22 Noroeste 0 -- -- 40
2019-03-25 22:00:00 14.9 13 Noroeste 26 Norte 0 -- -- 39
2019-03-25 21:00:00 12.5 0 Calma 13 Noroeste 0 -- -- 51
2019-03-25 20:00:00 13.7 4 Nordeste 9 Norte 0 -- -- 52
2019-03-25 19:00:00 16.4 5 Sur 15 Sur 0 -- -- 42
2019-03-25 18:00:00 18.9 10 Sur 18 Sur 0 -- -- 36
2019-03-25 17:00:00 20.1 10 Sur 21 Sur 0 -- -- 33
2019-03-25 16:00:00 20.9 13 Sur 23 Sur 0 -- -- 32
2019-03-25 15:00:00 20.8 12 Sur 25 Sur 0 -- -- 32
2019-03-25 14:00:00 22.3 13 Sur 24 Sudoeste 0 -- -- 29
2019-03-25 13:00:00 22.4 11 Sur 22 Sur 0 -- -- 31
2019-03-25 12:00:00 21.3 14 Sur 25 Sudoeste 0 -- -- 32
2019-03-25 11:00:00 23.8 10 Norte 20 Norte 0 -- -- 25
2019-03-25 10:00:00 22.7 5 Norte 12 Nordeste 0 -- -- 29
2019-03-25 09:00:00 16.9 7 Nordeste 12 Nordeste 0 -- -- 40
2019-03-25 08:00:00 11.6 7 Nordeste 14 Norte 0 -- -- 55
2019-03-25 07:00:00 8 9 Nordeste 12 Nordeste 0 -- -- 64
2019-03-25 06:00:00 7.9 7 Norte 11 Nordeste 0 -- -- 63
2019-03-25 05:00:00 7.6 8 Nordeste 13 Nordeste 0 -- -- 62
2019-03-25 04:00:00 8.2 8 Norte 13 Norte 0 -- -- 61
2019-03-25 03:00:00 9.7 10 Norte 18 Norte 0 -- -- 57
2019-03-25 02:00:00 9.3 8 Norte 14 Norte 0 -- -- 55
2019-03-25 01:00:00 8.1 6 Nordeste 11 Nordeste 0 -- -- 63
2019-03-25 00:00:00 9.7 5 Norte 12 Norte 0 -- -- 55
2019-03-24 23:00:00 10.7 5 Norte 11 Nordeste 0 -- -- 56
2019-03-24 22:00:00 11.9 6 Nordeste 12 Norte 0 -- -- 52
2019-03-24 21:00:00 12.3 4 Nordeste 7 Nordeste 0 -- -- 60
2019-03-24 20:00:00 13.7 2 Norte 4 Nordeste 0 -- -- 57
2019-03-24 19:00:00 17.1 2 Sudeste 10 Sur 0 -- -- 44
2019-03-24 18:00:00 19.8 7 Sur 15 Sur 0 -- -- 34
2019-03-24 17:00:00 20.9 10 Sur 24 Sudeste 0 -- -- 28
2019-03-24 16:00:00 22.3 12 Sudeste 25 Sur 0 -- -- 27
2019-03-24 15:00:00 22.9 14 Sur 27 Sudeste 0 -- -- 27
2019-03-24 14:00:00 22.7 18 Sudeste 28 Sur 0 -- -- 27
2019-03-24 13:00:00 22.8 16 Sur 28 Sudeste 0 -- -- 22
2019-03-24 12:00:00 22.5 13 Sur 21 Sur 0 -- -- 27
2019-03-24 11:00:00 22.9 6 Sudeste 19 Este 0 -- -- 25
2019-03-24 10:00:00 20.1 12 Nordeste 19 Nordeste 0 -- -- 28
2019-03-24 09:00:00 16.5 11 Nordeste 19 Nordeste 0 -- -- 36
2019-03-24 08:00:00 10.5 5 Nordeste 16 Noroeste 0 -- -- 47
2019-03-24 07:00:00 7.3 6 Norte 14 Norte 0 -- -- 53
2019-03-24 06:00:00 7.9 8 Norte 15 Norte 0 -- -- 54
2019-03-24 05:00:00 6.1 7 Nordeste 13 Norte 0 -- -- 60
2019-03-24 04:00:00 7.5 9 Norte 17 Norte 0 -- -- 55
2019-03-24 03:00:00 7.7 10 Norte 16 Norte 0 -- -- 55
2019-03-24 02:00:00 8 6 Norte 13 Norte 0 -- -- 57
2019-03-24 01:00:00 8.3 9 Norte 14 Norte 0 -- -- 56
2019-03-24 00:00:00 8.2 5 Norte 11 Noroeste 0 -- -- 59
2019-03-23 23:00:00 10.1 9 Norte 14 Norte 0 -- -- 50
2019-03-23 22:00:00 10 7 Nordeste 12 Norte 0 -- -- 56
2019-03-23 21:00:00 10.9 3 Norte 5 Norte 0 -- -- 51
2019-03-23 20:00:00 13.5 5 Sudeste 8 Sudeste 0 -- -- 40
2019-03-23 19:00:00 15.7 5 Sur 14 Sur 0 -- -- 31
2019-03-23 18:00:00 19.3 7 Sudoeste 14 Sur 0 -- -- 26
2019-03-23 17:00:00 20 10 Sur 20 Sur 0 -- -- 25
2019-03-23 16:00:00 21.5 12 Sur 28 Sudeste 0 -- -- 25
2019-03-23 15:00:00 21.6 13 Sur 24 Sur 0 -- -- 25
2019-03-23 14:00:00 21.3 13 Sur 25 Sur 0 -- -- 25
2019-03-23 13:00:00 22.3 12 Sur 23 Sudeste 0 -- -- 25
2019-03-23 12:00:00 22.8 3 Este 19 Este 0 -- -- 25
2019-03-23 11:00:00 21.1 7 Este 17 Nordeste 0 -- -- 28
2019-03-23 10:00:00 18.8 5 Nordeste 12 Este 0 -- -- 30
2019-03-23 09:00:00 16.9 7 Norte 12 Norte 0 -- -- 33
2019-03-23 08:00:00 10.7 6 Norte 13 Nordeste 0 -- -- 49
2019-03-23 07:00:00 6.9 9 Nordeste 15 Nordeste 0 -- -- 59
2019-03-23 06:00:00 6.9 10 Nordeste 15 Norte 0 -- -- 59
2019-03-23 05:00:00 6.3 6 Nordeste 13 Nordeste 0 -- -- 59
2019-03-23 04:00:00 6.7 6 Norte 12 Norte 0 -- -- 57
2019-03-23 03:00:00 6.6 4 Nordeste 14 Norte 0 -- -- 59
2019-03-23 02:00:00 8.1 5 Norte 10 Norte 0 -- -- 56
2019-03-23 01:00:00 9.3 9 Nordeste 12 Nordeste 0 -- -- 56
2019-03-23 00:00:00 10.1 8 Nordeste 13 Norte 0 -- -- 55
2019-03-22 23:00:00 10.3 8 Nordeste 13 Norte 0 -- -- 53
2019-03-22 22:00:00 10.9 7 Norte 13 Noroeste 0 -- -- 51
2019-03-22 21:00:00 11 5 Noroeste 7 Noroeste 0 -- -- 50
2019-03-22 20:00:00 12.5 3 Nordeste 7 Oeste 0 -- -- 43
2019-03-22 19:00:00 15 4 Sur 17 Este 0 -- -- 32
2019-03-22 18:00:00 16.8 13 Este 25 Este 0 -- -- 29
2019-03-22 17:00:00 18.1 15 Este 29 Este 0 -- -- 26
2019-03-22 16:00:00 18.9 17 Este 28 Este 0 -- -- 25
2019-03-22 15:00:00 20.3 15 Este 25 Este 0 -- -- 25
2019-03-22 14:00:00 19.9 11 Nordeste 23 Este 0 -- -- 25
2019-03-22 13:00:00 20.3 12 Norte 27 Este 0 -- -- 25
2019-03-22 12:00:00 18.2 6 Norte 22 Norte 0 -- -- 28
2019-03-22 11:00:00 17.2 8 Norte 20 Norte 0 -- -- 30
2019-03-22 10:00:00 16.2 11 Norte 19 Nordeste 0 -- -- 33
2019-03-22 09:00:00 13 10 Norte 18 Norte 0 -- -- 42
2019-03-22 08:00:00 9.9 12 Norte 18 Norte 0 -- -- 51
2019-03-22 07:00:00 7.5 9 Noroeste 16 Noroeste 0 -- -- 64
2019-03-22 06:00:00 6 9 Noroeste 15 Norte 0 -- -- 72
2019-03-22 05:00:00 5.1 10 Noroeste 14 Noroeste 0 -- -- 72
2019-03-22 04:00:00 5.1 6 Noroeste 10 Noroeste 0 -- -- 73
2019-03-22 03:00:00 4.7 6 Noroeste 12 Noroeste 0 -- -- 74
2019-03-22 02:00:00 5.2 6 Norte 10 Oeste 0 -- -- 73
2019-03-22 01:00:00 5.7 4 Noroeste 13 Noroeste 0 -- -- 71
2019-03-22 00:00:00 6 10 Norte 13 Norte 0 -- -- 70
2019-03-21 23:00:00 6.6 7 Norte 11 Norte 0 -- -- 68
2019-03-21 22:00:00 6.9 4 Nordeste 10 Noroeste 0 -- -- 69
2019-03-21 21:00:00 8.6 3 Norte 6 Norte 0 -- -- 64
2019-03-21 20:00:00 10.2 0 Calma 7 Sur 0 -- -- 50
2019-03-21 19:00:00 12.6 4 Sudeste 17 Sudeste 0 -- -- 41
2019-03-21 18:00:00 14 11 Sudeste 31 Este 0 -- -- 38
2019-03-21 17:00:00 14.6 16 Este 40 Este 0 -- -- 34
2019-03-21 16:00:00 16 22 Este 45 Este 0 -- -- 30
2019-03-21 15:00:00 16.7 21 Sudeste 33 Este 0 -- -- 26
2019-03-21 14:00:00 17.9 18 Sudeste 32 Sudeste 0 -- -- 26
2019-03-21 13:00:00 17.6 18 Sudeste 30 Sudeste 0 -- -- 25
2019-03-21 12:00:00 17.1 8 Nordeste 18 Este 0 -- -- 25
2019-03-21 11:00:00 15.6 12 Este 19 Nordeste 0 -- -- 29
2019-03-21 10:00:00 14.4 10 Este 19 Este 0 -- -- 35
2019-03-21 09:00:00 12.2 12 Nordeste 20 Nordeste 0 -- -- 40
2019-03-21 08:00:00 9.6 10 Nordeste 19 Nordeste 0 -- -- 48
2019-03-21 07:00:00 7 10 Nordeste 16 Nordeste 0 -- -- 56
2019-03-21 06:00:00 6.5 8 Nordeste 13 Nordeste 0 -- -- 58
2019-03-21 05:00:00 6.4 8 Nordeste 12 Norte 0 -- -- 62
2019-03-21 04:00:00 7.1 6 Noroeste 13 Noroeste 0 -- -- 57
2019-03-21 03:00:00 7.4 8 Norte 15 Norte 0 -- -- 61
2019-03-21 02:00:00 7 6 Norte 15 Noroeste 0 -- -- 67
2019-03-21 01:00:00 7.6 6 Norte 12 Norte 0 -- -- 65
2019-03-21 00:00:00 7.3 8 Norte 12 Norte 0 -- -- 70
2019-03-20 23:00:00 7.7 6 Norte 10 Norte 0 -- -- 67
2019-03-20 22:00:00 7.8 5 Norte 9 Norte 0 -- -- 70
2019-03-20 21:00:00 8.1 0 Calma 0 Calma 0 -- -- 68
2019-03-20 20:00:00 10.4 0 Calma 6 Sudeste 0 -- -- 55
2019-03-20 19:00:00 12 5 Sudeste 20 Sudeste 0 -- -- 46
2019-03-20 18:00:00 13.5 12 Sudeste 26 Sudeste 0 -- -- 43
2019-03-20 17:00:00 13.9 18 Sudeste 36 Este 0 -- -- 42
2019-03-20 16:00:00 15.5 22 Sudeste 38 Sudeste 0 -- -- 35
2019-03-20 15:00:00 16.8 18 Sudeste 34 Sudeste 0 -- -- 32
2019-03-20 14:00:00 17.3 6 Nordeste 27 Nordeste 0 -- -- 25
2019-03-20 13:00:00 16.7 14 Este 26 Este 0 -- -- 27
2019-03-20 12:00:00 16 10 Este 21 Este 0 -- -- 28
2019-03-20 11:00:00 15.5 10 Este 18 Nordeste 0 -- -- 33
2019-03-20 10:00:00 12.9 9 Nordeste 20 Nordeste 0 -- -- 40
2019-03-20 09:00:00 12.4 8 Nordeste 18 Oeste 0 -- -- 45
2019-03-20 08:00:00 9.4 5 Noroeste 11 Noroeste 0 -- -- 61
2019-03-20 07:00:00 6.9 8 Oeste 33 Noroeste 0 -- -- 64
2019-03-20 06:00:00 7.5 9 Noroeste 15 Noroeste 0 -- -- 72
2019-03-20 05:00:00 7.9 3 Noroeste 9 Oeste 0 -- -- 72
2019-03-20 04:00:00 9.3 5 Este 22 Sudeste 0 -- -- 64
2019-03-20 03:00:00 8.8 5 Norte 12 Noroeste 0 -- -- 64
2019-03-20 02:00:00 8.7 6 Oeste 12 Oeste 0 -- -- 67
2019-03-20 01:00:00 9.6 9 Oeste 13 Noroeste 0.1 -- -- 71
2019-03-20 00:00:00 9.7 6 Oeste 8 Oeste 0 -- -- 83
2019-03-19 23:00:00 9.6 4 Noroeste 10 Sudoeste 0 -- -- 83
2019-03-19 22:00:00 9.8 6 Sur 8 Sur 0 -- -- 82
2019-03-19 21:00:00 10 4 Sudeste 8 Sudeste 0.7 -- -- 81
2019-03-19 20:00:00 11.1 2 Sudeste 8 Sur 0.1 -- -- 79
2019-03-19 19:00:00 11.1 4 Sudoeste 17 Sur 0.1 -- -- 80
2019-03-19 18:00:00 11.5 10 Sur 20 Sur 0.6 -- -- 75
2019-03-19 17:00:00 13.8 12 Sur 23 Sudeste 0 -- -- 47
2019-03-19 16:00:00 14.7 11 Sur 26 Sudeste 0 -- -- 41
2019-03-19 15:00:00 15.6 14 Sur 24 Sur 0 -- -- 35
2019-03-19 14:00:00 17.3 9 Norte 25 Nordeste 0 -- -- 26
2019-03-19 13:00:00 19.2 5 Noroeste 21 Noroeste 0 -- -- 28
2019-03-19 12:00:00 18.5 8 Norte 23 Noroeste 0 -- -- 29
2019-03-19 11:00:00 18.2 11 Noroeste 32 Noroeste 0 -- -- 31
2019-03-19 10:00:00 15.2 20 Noroeste 33 Oeste 0 -- -- 35
2019-03-19 09:00:00 13.4 19 Noroeste 31 Noroeste 0 -- -- 38
2019-03-19 08:00:00 11.4 13 Noroeste 23 Noroeste 0 -- -- 43
2019-03-19 07:00:00 10.5 10 Noroeste 20 Noroeste 0 -- -- 44
2019-03-19 06:00:00 10.4 7 Norte 16 Noroeste 0 -- -- 43
2019-03-19 05:00:00 10.9 10 Noroeste 20 Noroeste 0 -- -- 42
2019-03-19 04:00:00 10.1 5 Norte 7 Norte 0 -- -- 40
2019-03-19 03:00:00 11.2 3 Nordeste 25 Norte 0 -- -- 36
2019-03-19 02:00:00 11.4 6 Norte 22 Noroeste 0 -- -- 35
2019-03-19 01:00:00 11.4 10 Noroeste 28 Oeste 0 -- -- 34
2019-03-19 00:00:00 12.1 10 Norte 19 Noroeste 0 -- -- 33